Time;durP1;ratioP1;P1;durP2;ratioP2;P2;SDS_P1;SDS_P2;PMS_P1;PMS_P2;Temp;Humidity;BMP_temperature;BMP_pressure;BME280_temperature;BME280_humidity;BME280_pressure;Samples;Min_cycle;Max_cycle;Signal;HPM_P1;HPM_P2
2022/01/28 00:01:34;;;;;;;15.50;2.43;;;;;;;4.46;85.19;102958.19;5027757;28;20022;-55
2022/01/28 00:04:11;;;;;;;16.30;2.57;;;;;;;4.44;85.29;102960.91;5028548;28;20026;-56
2022/01/28 00:06:36;;;;;;;14.20;2.40;;;;;;;4.45;85.04;102972.28;5029960;28;20048;-55
2022/01/28 00:09:02;;;;;;;17.70;2.13;;;;;;;4.41;85.16;102973.38;5026940;28;20025;-55
2022/01/28 00:11:27;;;;;;;14.63;2.37;;;;;;;4.34;84.65;102973.69;5028712;28;20032;-55
2022/01/28 00:13:59;;;;;;;18.37;2.20;;;;;;;4.28;84.75;102984.50;5029135;28;20083;-54
2022/01/28 00:38:35;;;;;;;17.63;2.03;;;;;;;3.81;86.10;102996.53;5022913;28;20064;-56
2022/01/28 00:41:01;;;;;;;20.23;3.13;;;;;;;3.76;86.11;102988.88;5028556;28;20029;-55
2022/01/28 00:43:28;;;;;;;14.97;2.20;;;;;;;3.80;86.29;102993.03;5028692;28;20028;-55
2022/01/28 00:45:55;;;;;;;21.13;2.97;;;;;;;3.81;86.38;102986.84;5028595;28;20120;-54
2022/01/28 00:48:21;;;;;;;12.50;1.93;;;;;;;3.84;86.28;102989.34;5029949;28;20424;-53
2022/01/28 00:50:46;;;;;;;11.17;1.70;;;;;;;3.87;86.75;102991.81;5027250;28;20022;-56
2022/01/28 00:53:43;;;;;;;16.33;2.40;;;;;;;3.91;86.77;102998.63;5029142;28;20025;-55
2022/01/28 00:56:09;;;;;;;16.40;3.23;;;;;;;3.92;86.79;102991.59;5008125;28;20051;-53
2022/01/28 00:58:34;;;;;;;20.40;2.50;;;;;;;3.92;86.39;102991.59;5027882;28;20104;-54
2022/01/28 01:01:00;;;;;;;13.63;2.10;;;;;;;3.92;86.70;102987.19;5028614;28;20021;-53
2022/01/28 01:03:25;;;;;;;18.83;2.43;;;;;;;3.94;86.82;102985.31;5026134;28;20501;-52
2022/01/28 01:05:50;;;;;;;17.93;3.13;;;;;;;3.97;86.68;102992.22;5029126;28;20056;-55
2022/01/28 01:08:16;;;;;;;20.87;2.87;;;;;;;3.95;86.76;102988.81;5028691;28;20061;-55
2022/01/28 01:10:41;;;;;;;16.93;2.23;;;;;;;4.03;86.81;102994.53;5027832;28;20387;-55
2022/01/28 01:13:07;;;;;;;24.37;2.43;;;;;;;4.09;86.61;102996.03;5028556;28;20018;-54
2022/01/28 01:15:38;;;;;;;17.30;2.60;;;;;;;4.15;86.73;102993.09;5028088;28;20025;-54
2022/01/28 01:18:14;;;;;;;21.07;2.50;;;;;;;4.18;86.55;102993.78;5021427;28;20043;-52
2022/01/28 01:23:21;;;;;;;22.07;2.60;;;;;;;4.19;86.56;102995.50;5026393;28;20029;-52
2022/01/28 01:25:51;;;;;;;24.03;2.37;;;;;;;4.21;86.70;102998.88;5026668;28;20029;-55
2022/01/28 01:28:20;;;;;;;20.30;2.90;;;;;;;4.22;86.69;102994.47;5026845;28;20028;-54
2022/01/28 01:30:46;;;;;;;24.60;2.97;;;;;;;4.22;86.42;103005.00;5026760;28;20091;-56
2022/01/28 01:33:12;;;;;;;14.57;2.50;;;;;;;4.24;86.25;103011.03;5027372;28;20085;-53
2022/01/28 01:35:38;;;;;;;13.53;2.20;;;;;;;4.24;86.75;103005.78;5027154;28;20480;-55
2022/01/28 01:38:03;;;;;;;18.20;2.30;;;;;;;4.25;86.50;103010.09;5027844;28;20091;-55
2022/01/28 01:40:39;;;;;;;16.70;2.10;;;;;;;4.25;86.27;103024.09;5027496;28;20033;-55
2022/01/28 01:43:18;;;;;;;18.20;2.73;;;;;;;4.28;86.50;103038.88;5027330;28;20033;-56
2022/01/28 01:46:01;;;;;;;19.42;2.80;;;;;;;4.29;86.47;103035.31;5023482;28;20392;-54
2022/01/28 01:53:59;;;;;;;20.67;2.47;;;;;;;4.28;86.20;103047.63;5027901;28;20507;-55
2022/01/28 01:56:24;;;;;;;20.57;2.83;;;;;;;4.28;86.28;103059.91;5024812;28;20032;-56
2022/01/28 01:58:50;;;;;;;18.50;2.53;;;;;;;4.27;86.26;103059.06;5026476;28;20280;-56
2022/01/28 02:01:18;;;;;;;18.17;2.10;;;;;;;4.29;86.59;103064.25;5027421;28;20025;-55
2022/01/28 02:03:44;;;;;;;12.80;2.28;;;;;;;4.28;86.36;103070.44;5027034;28;20076;-54
2022/01/28 02:06:10;;;;;;;18.27;2.50;;;;;;;4.25;86.54;103075.84;5027631;28;20115;-54
2022/01/28 02:08:36;;;;;;;23.10;2.63;;;;;;;4.24;86.07;103082.03;5027121;28;20175;-52
2022/01/28 02:11:02;;;;;;;16.40;2.10;;;;;;;4.23;86.20;103086.44;5027741;28;20013;-54
2022/01/28 02:13:30;;;;;;;19.27;2.50;;;;;;;4.24;86.39;103085.53;5028474;28;20022;-55
2022/01/28 02:15:58;;;;;;;20.30;2.70;;;;;;;4.25;86.51;103089.00;5030639;28;20342;-54
2022/01/28 02:18:24;;;;;;;19.87;2.60;;;;;;;4.26;86.56;103080.19;5032038;28;20025;-55
2022/01/28 02:20:53;;;;;;;21.93;2.37;;;;;;;4.23;86.63;103085.59;5031023;28;20159;-55
2022/01/28 02:23:23;;;;;;;23.87;3.13;;;;;;;4.26;86.58;103082.81;5032584;28;20064;-55
2022/01/28 02:25:49;;;;;;;17.07;2.40;;;;;;;4.24;86.64;103082.91;5031285;28;20025;-54
2022/01/28 02:28:18;;;;;;;22.27;2.27;;;;;;;4.27;86.77;103095.03;5031016;28;20110;-54
2022/01/28 02:30:44;;;;;;;14.20;1.90;;;;;;;4.29;86.67;103101.94;5030047;28;20022;-54
2022/01/28 02:33:26;;;;;;;20.90;2.60;;;;;;;4.32;87.13;103093.88;5029518;28;20500;-55
2022/01/28 02:35:51;;;;;;;16.73;2.27;;;;;;;4.30;86.85;103102.78;5030128;28;20037;-56
2022/01/28 02:38:20;;;;;;;22.60;2.60;;;;;;;4.27;87.04;103092.41;5031770;28;20030;-55
2022/01/28 02:40:50;;;;;;;16.93;2.50;;;;;;;4.26;87.09;103088.94;5030505;28;20029;-55
2022/01/28 02:45:49;;;;;;;16.13;2.13;;;;;;;4.29;87.14;103101.06;5030155;28;20127;-54
2022/01/28 02:48:19;;;;;;;17.20;2.60;;;;;;;4.30;86.88;103101.00;5030836;28;20029;-52
2022/01/28 02:51:01;;;;;;;17.17;2.20;;;;;;;4.29;87.27;103116.84;5030563;28;20014;-56
2022/01/28 02:53:37;;;;;;;21.37;2.50;;;;;;;4.29;87.38;103120.34;5030751;28;20071;-51
2022/01/28 02:56:11;;;;;;;18.67;2.23;;;;;;;4.28;87.44;103118.63;5031196;28;20029;-55
2022/01/28 02:58:36;;;;;;;21.13;2.20;;;;;;;4.30;87.07;103114.16;5029779;28;20033;-54
2022/01/28 03:01:02;;;;;;;18.50;2.20;;;;;;;4.32;87.06;103119.34;5030708;28;20036;-55
2022/01/28 03:03:28;;;;;;;19.97;2.70;;;;;;;4.32;86.75;103119.34;5030484;28;20087;-54
2022/01/28 03:05:53;;;;;;;20.27;2.30;;;;;;;4.32;87.20;103121.97;5030358;28;20029;-55
2022/01/28 03:08:23;;;;;;;16.90;2.40;;;;;;;4.30;87.17;103124.66;5030090;28;20061;-55
2022/01/28 03:11:13;;;;;;;19.13;2.30;;;;;;;4.32;87.24;103127.22;5026088;28;20021;-54
2022/01/28 03:13:56;;;;;;;22.07;2.20;;;;;;;4.29;87.27;103124.75;5030297;28;20033;-52
2022/01/28 03:16:20;;;;;;;20.93;2.77;;;;;;;4.32;87.29;103127.22;5025850;28;20044;-56
2022/01/28 03:22:02;;;;;;;22.60;2.23;;;;;;;4.36;87.43;103134.06;5030272;28;20045;-55
2022/01/28 03:24:06;;;;;;;16.87;2.70;;;;;;;4.39;87.50;103135.69;5020434;28;20099;-55
2022/01/28 03:26:31;;;;;;;20.47;2.40;;;;;;;4.39;87.78;103136.56;5029355;28;20120;-54
2022/01/28 03:28:57;;;;;;;17.60;2.10;;;;;;;4.31;87.55;103129.00;5029821;28;20450;-53
2022/01/28 03:31:22;;;;;;;13.43;2.03;;;;;;;4.27;87.40;103127.44;5029371;28;20435;-53
2022/01/28 03:33:47;;;;;;;14.70;2.50;;;;;;;4.24;87.64;103126.75;5027927;28;20105;-55
2022/01/28 03:36:14;;;;;;;16.47;2.30;;;;;;;4.21;87.90;103124.28;5028357;28;20033;-53
2022/01/28 03:38:41;;;;;;;17.93;2.97;;;;;;;4.19;88.34;103137.50;5030705;28;20076;-55
2022/01/28 03:41:12;;;;;;;22.63;2.30;;;;;;;4.18;88.32;103138.41;5030339;28;20064;-56
2022/01/28 03:43:38;;;;;;;17.33;2.40;;;;;;;4.11;88.24;103139.63;5030134;28;20037;-55
2022/01/28 03:46:04;;;;;;;14.30;2.20;;;;;;;4.06;88.42;103139.00;5028074;28;20029;-56
2022/01/28 03:48:29;;;;;;;15.90;2.20;;;;;;;3.97;88.13;103142.91;5030168;28;20378;-55
2022/01/28 03:50:54;;;;;;;16.63;2.70;;;;;;;3.92;88.25;103144.03;5029050;28;20021;-55
2022/01/28 03:53:19;;;;;;;17.63;2.53;;;;;;;3.91;88.47;103144.97;5029948;28;20037;-55
2022/01/28 03:55:46;;;;;;;16.73;2.17;;;;;;;3.90;89.08;103146.75;5029880;28;20052;-53
2022/01/28 03:58:11;;;;;;;17.77;2.20;;;;;;;3.91;89.28;103153.69;5030281;28;20029;-56
2022/01/28 04:00:37;;;;;;;18.23;2.20;;;;;;;3.89;89.15;103152.94;5028646;28;20026;-55
2022/01/28 04:03:35;;;;;;;21.40;2.40;;;;;;;3.89;89.43;103155.56;5030058;28;20026;-54
2022/01/28 04:11:33;;;;;;;20.27;2.80;;;;;;;3.86;89.67;103158.31;5022889;28;20095;-55
2022/01/28 04:19:37;;;;;;;19.37;2.30;;;;;;;3.73;89.03;103158.00;5026121;28;20036;-53
2022/01/28 04:22:02;;;;;;;17.67;2.73;;;;;;;3.68;89.58;103164.41;5029466;28;20219;-52
2022/01/28 04:24:27;;;;;;;20.07;2.43;;;;;;;3.64;89.41;103171.56;5029164;28;20520;-56
2022/01/28 04:26:53;;;;;;;19.57;2.53;;;;;;;3.60;89.45;103163.91;5028247;28;20370;-54
2022/01/28 04:29:18;;;;;;;19.53;2.70;;;;;;;3.60;89.49;103167.38;5027849;28;20022;-55
2022/01/28 04:31:46;;;;;;;16.57;2.30;;;;;;;3.60;89.72;103171.78;5029573;28;20484;-55
2022/01/28 04:34:16;;;;;;;13.47;1.80;;;;;;;3.56;89.82;103184.19;5029550;28;20017;-52
2022/01/28 04:40:14;;;;;;;15.77;2.10;;;;;;;3.47;90.13;103176.75;5015532;28;20029;-52
2022/01/28 04:47:51;;;;;;;19.00;2.40;;;;;;;3.58;91.25;103184.13;5029622;28;20503;-55
2022/01/28 04:58:35;;;;;;;17.37;2.60;;;;;;;3.56;91.41;103196.47;5032657;28;20497;-55
2022/01/28 05:06:35;;;;;;;16.67;2.13;;;;;;;3.52;91.65;103201.03;5028955;28;20057;-55
2022/01/28 05:27:11;;;;;;;15.97;2.67;;;;;;;3.01;91.80;103230.34;5028848;28;20061;-56
2022/01/28 05:29:39;;;;;;;18.85;2.85;;;;;;;2.99;91.98;103232.16;5023136;28;20533;-55
2022/01/28 05:32:05;;;;;;;21.33;3.00;;;;;;;3.00;92.27;103233.88;5026016;28;20022;-56
2022/01/28 05:34:30;;;;;;;16.40;3.03;;;;;;;3.01;91.97;103235.59;5026868;28;20546;-54
2022/01/28 05:36:55;;;;;;;18.30;3.20;;;;;;;3.04;92.47;103235.44;5027735;28;20017;-53
2022/01/28 05:39:21;;;;;;;17.70;3.47;;;;;;;3.05;92.86;103232.75;5025142;28;20037;-55
2022/01/28 05:41:46;;;;;;;21.03;3.43;;;;;;;3.08;92.75;103231.78;5026304;28;20534;-55
2022/01/28 05:44:12;;;;;;;16.20;2.27;;;;;;;3.12;93.02;103243.84;5026050;28;20026;-55
2022/01/28 05:46:37;;;;;;;23.50;3.03;;;;;;;3.17;93.15;103252.41;5026878;28;20021;-53
2022/01/28 05:49:03;;;;;;;20.63;2.20;;;;;;;3.14;92.51;103246.41;5020317;28;20474;-54
2022/01/28 05:51:28;;;;;;;19.77;2.60;;;;;;;3.17;92.55;103247.16;5026605;28;20028;-54
2022/01/28 05:53:57;;;;;;;16.17;2.63;;;;;;;3.20;92.57;103254.91;5025904;28;20013;-56
2022/01/28 05:56:22;;;;;;;15.52;2.38;;;;;;;3.19;92.59;103250.59;5027102;28;20474;-57
2022/01/28 05:58:48;;;;;;;14.57;2.60;;;;;;;3.14;92.43;103254.28;5026672;28;20037;-56
2022/01/28 06:01:13;;;;;;;18.30;2.53;;;;;;;3.11;91.97;103258.75;5026596;28;20030;-57
2022/01/28 06:03:39;;;;;;;17.53;2.60;;;;;;;3.08;91.93;103261.50;5026932;28;20404;-57
2022/01/28 06:06:04;;;;;;;15.93;2.10;;;;;;;2.97;91.70;103271.59;5026431;28;20469;-56
2022/01/28 06:08:29;;;;;;;17.97;2.60;;;;;;;2.91;91.43;103278.88;5026706;28;20104;-57
2022/01/28 06:10:55;;;;;;;15.23;2.20;;;;;;;2.86;91.28;103276.41;5026190;28;20060;-57
2022/01/28 06:13:20;;;;;;;17.60;2.20;;;;;;;2.86;91.57;103272.94;5026762;28;20037;-56
2022/01/28 06:15:46;;;;;;;19.30;3.17;;;;;;;2.89;91.74;103280.66;5026719;28;20424;-55
2022/01/28 06:18:12;;;;;;;21.37;3.13;;;;;;;2.80;91.61;103288.00;5026297;28;20026;-57
2022/01/28 06:20:38;;;;;;;13.90;2.30;;;;;;;2.66;91.23;103287.69;5023836;28;20065;-57
2022/01/28 06:23:04;;;;;;;12.13;1.87;;;;;;;2.55;90.67;103287.25;5026592;28;20072;-57
2022/01/28 06:25:29;;;;;;;20.30;2.60;;;;;;;2.55;91.11;103284.63;5026235;28;20033;-57
2022/01/28 06:27:55;;;;;;;15.67;2.90;;;;;;;2.61;91.59;103289.66;5025940;28;20025;-56
2022/01/28 06:30:21;;;;;;;16.43;2.70;;;;;;;2.60;91.44;103298.44;5025535;28;20067;-56
2022/01/28 06:32:47;;;;;;;15.67;2.50;;;;;;;2.52;91.34;103308.34;5026368;28;20075;-56
2022/01/28 06:35:12;;;;;;;16.43;2.63;;;;;;;2.41;90.99;103298.25;5026162;28;20436;-56
2022/01/28 06:37:40;;;;;;;19.90;2.43;;;;;;;2.41;90.72;103314.00;5025955;28;20026;-56
2022/01/28 06:40:12;;;;;;;20.33;2.50;;;;;;;2.36;90.92;103313.31;5025143;28;20417;-56
2022/01/28 06:42:38;;;;;;;17.73;2.57;;;;;;;2.36;91.09;103326.44;5025579;28;20477;-57
2022/01/28 06:45:05;;;;;;;15.70;2.70;;;;;;;2.40;91.08;103322.78;5027368;28;20067;-56
2022/01/28 06:47:31;;;;;;;20.70;1.90;;;;;;;2.42;91.03;103320.94;5028077;28;20449;-56
2022/01/28 06:49:57;;;;;;;15.53;2.30;;;;;;;2.46;91.22;103326.94;5026137;28;20051;-55
2022/01/28 06:52:22;;;;;;;16.10;3.07;;;;;;;2.46;91.56;103340.91;5027991;28;20021;-55
2022/01/28 06:54:48;;;;;;;16.80;2.90;;;;;;;2.44;91.42;103344.50;5027527;28;20025;-56
2022/01/28 06:57:13;;;;;;;18.30;2.83;;;;;;;2.42;90.99;103341.94;5026976;28;20489;-55
2022/01/28 06:59:38;;;;;;;20.60;2.47;;;;;;;2.43;90.89;103345.41;5024249;28;20404;-56
2022/01/28 07:02:04;;;;;;;19.33;2.80;;;;;;;2.43;90.93;103348.03;5030484;28;20022;-56
2022/01/28 07:04:29;;;;;;;17.53;2.30;;;;;;;2.42;91.06;103365.53;5030904;28;20033;-57
2022/01/28 07:06:54;;;;;;;16.80;2.23;;;;;;;2.39;91.01;103368.28;5031573;28;20497;-57
2022/01/28 07:09:20;;;;;;;21.07;2.60;;;;;;;2.39;90.68;103370.03;5030233;28;20044;-57
2022/01/28 07:11:45;;;;;;;16.27;2.10;;;;;;;2.39;90.74;103370.91;5030756;28;20404;-57
2022/01/28 07:14:11;;;;;;;13.97;2.37;;;;;;;2.44;90.85;103370.72;5030474;28;20113;-57
2022/01/28 07:16:36;;;;;;;23.07;2.80;;;;;;;2.48;90.92;103373.16;5028777;28;20114;-57
2022/01/28 07:19:03;;;;;;;20.07;3.30;;;;;;;2.45;91.09;103385.53;5028545;28;20064;-56
2022/01/28 07:21:28;;;;;;;14.87;2.60;;;;;;;2.42;90.94;103377.78;5030136;28;20021;-57
2022/01/28 07:23:54;;;;;;;10.87;2.10;;;;;;;2.37;90.66;103380.59;5029250;28;20018;-56
2022/01/28 07:26:19;;;;;;;14.13;2.70;;;;;;;2.39;90.66;103375.28;5029080;28;20033;-57
2022/01/28 07:28:46;;;;;;;17.27;2.13;;;;;;;2.37;90.71;103380.59;5026148;28;20153;-56
2022/01/28 07:31:14;;;;;;;16.40;2.60;;;;;;;2.37;90.76;103382.34;5026363;28;20036;-57
2022/01/28 07:33:40;;;;;;;16.97;2.93;;;;;;;2.41;90.99;103407.53;5029731;28;20400;-57
2022/01/28 07:36:05;;;;;;;20.63;3.30;;;;;;;2.44;91.29;103396.94;5030339;28;20512;-57
2022/01/28 07:38:31;;;;;;;18.87;3.50;;;;;;;2.43;91.28;103397.84;5030075;28;20115;-57
2022/01/28 07:40:58;;;;;;;18.40;3.50;;;;;;;2.41;91.20;103403.16;5029678;28;20029;-57
2022/01/28 07:43:24;;;;;;;22.63;4.87;;;;;;;2.32;90.95;103402.63;5030586;28;20026;-55
2022/01/28 07:45:49;;;;;;;17.63;2.87;;;;;;;2.39;91.09;103410.22;5027232;28;20026;-54
2022/01/28 07:48:14;;;;;;;17.83;3.47;;;;;;;2.39;91.40;103418.09;5027383;28;20060;-57
2022/01/28 07:50:39;;;;;;;17.63;2.97;;;;;;;2.35;91.17;103403.38;5026402;28;20033;-57
2022/01/28 07:53:08;;;;;;;17.60;2.97;;;;;;;2.35;91.40;103403.38;5028316;28;20056;-57
2022/01/28 07:55:33;;;;;;;18.50;3.10;;;;;;;2.41;91.37;103408.41;5030255;28;20060;-53
2022/01/28 07:57:58;;;;;;;16.03;3.00;;;;;;;2.44;91.10;103412.69;5029912;28;20459;-56
2022/01/28 08:00:26;;;;;;;28.10;3.63;;;;;;;2.52;91.40;103420.25;5026650;28;20022;-56
2022/01/28 08:02:52;;;;;;;18.97;3.53;;;;;;;2.54;91.82;103416.69;5026137;28;20477;-60
2022/01/28 08:05:17;;;;;;;13.20;2.70;;;;;;;2.55;91.47;103431.50;5029335;28;20028;-60
2022/01/28 08:07:43;;;;;;;20.37;2.73;;;;;;;2.48;91.41;103428.25;5027799;28;20029;-60
2022/01/28 08:10:09;;;;;;;18.73;2.87;;;;;;;2.49;91.50;103429.09;5028497;28;20456;-63
2022/01/28 08:12:50;;;;;;;15.40;2.77;;;;;;;2.54;91.62;103444.66;5027991;28;20024;-62
2022/01/28 08:15:16;;;;;;;20.50;3.13;;;;;;;2.51;91.42;103444.78;5021793;28;20061;-63
2022/01/28 08:17:41;;;;;;;21.73;3.40;;;;;;;2.45;91.49;103446.72;5027845;28;20114;-63
2022/01/28 08:20:08;;;;;;;17.17;3.03;;;;;;;2.49;91.41;103457.94;5028984;28;20033;-63
2022/01/28 08:22:44;;;;;;;20.20;3.70;;;;;;;2.57;91.56;103458.53;5029587;28;20033;-63
2022/01/28 08:25:10;;;;;;;21.73;3.37;;;;;;;2.62;91.65;103464.50;5023101;28;20443;-63
2022/01/28 08:27:35;;;;;;;15.03;3.27;;;;;;;2.72;91.54;103467.63;5028751;28;20048;-63
2022/01/28 08:30:00;;;;;;;17.20;3.23;;;;;;;2.84;91.45;103476.81;5028477;28;20037;-63
2022/01/28 08:32:27;;;;;;;16.70;3.17;;;;;;;2.87;91.44;103474.06;5028058;28;20021;-63
2022/01/28 08:34:53;;;;;;;17.83;3.67;;;;;;;2.94;91.27;103463.31;5029294;28;20033;-63
2022/01/28 08:37:19;;;;;;;18.60;4.07;;;;;;;3.14;91.39;103477.44;5023093;28;20067;-63
2022/01/28 08:39:44;;;;;;;19.10;3.97;;;;;;;3.17;90.93;103477.34;5027048;28;20037;-63
2022/01/28 08:42:09;;;;;;;23.23;3.73;;;;;;;3.18;90.85;103477.31;5027884;28;20081;-63
2022/01/28 08:44:34;;;;;;;13.43;3.00;;;;;;;3.25;90.62;103476.16;5028458;28;20037;-63
2022/01/28 08:47:00;;;;;;;18.10;2.97;;;;;;;3.38;90.43;103471.28;5028432;28;20100;-64
2022/01/28 08:49:25;;;;;;;17.80;3.47;;;;;;;3.50;90.70;103483.09;5026871;28;20404;-63
2022/01/28 08:51:50;;;;;;;16.93;3.33;;;;;;;3.52;90.59;103483.88;5029161;28;20071;-63
2022/01/28 08:54:16;;;;;;;12.47;3.03;;;;;;;3.51;90.37;103474.28;5029352;28;20029;-63
2022/01/28 08:56:41;;;;;;;15.13;3.10;;;;;;;3.53;90.35;103475.94;5029425;28;20032;-64
2022/01/28 08:59:07;;;;;;;17.80;3.60;;;;;;;3.53;90.42;103481.19;5028990;28;20030;-64
2022/01/28 09:01:32;;;;;;;23.97;3.87;;;;;;;3.56;90.05;103475.81;5028969;28;20029;-62
2022/01/28 09:03:57;;;;;;;14.03;3.20;;;;;;;3.63;90.60;103479.91;5028944;28;20033;-63
2022/01/28 09:06:24;;;;;;;21.10;4.13;;;;;;;3.73;90.80;103478.63;5028921;28;20017;-63
2022/01/28 09:08:53;;;;;;;27.10;5.20;;;;;;;3.82;90.79;103477.41;5028143;28;20473;-63
2022/01/28 09:13:47;;;;;;;20.10;4.17;;;;;;;4.07;90.49;103476.41;5029597;28;20037;-64
2022/01/28 09:16:13;;;;;;;17.53;4.27;;;;;;;4.19;90.36;103478.53;5028117;28;20044;-63
2022/01/28 09:18:38;;;;;;;23.97;4.57;;;;;;;4.26;90.16;103480.81;5026384;28;20063;-63
2022/01/28 09:21:04;;;;;;;19.83;4.77;;;;;;;4.28;89.87;103488.66;5024654;28;20021;-63
2022/01/28 09:23:29;;;;;;;21.60;5.20;;;;;;;4.27;89.69;103474.63;5028368;28;20025;-63
2022/01/28 09:25:54;;;;;;;20.87;5.37;;;;;;;4.31;89.16;103486.75;5027654;28;20104;-63
2022/01/28 09:28:20;;;;;;;20.07;5.20;;;;;;;4.39;89.16;103485.56;5028538;28;20025;-63
2022/01/28 09:30:45;;;;;;;21.63;5.50;;;;;;;4.38;89.12;103483.88;5027651;28;20033;-63
2022/01/28 09:33:10;;;;;;;18.87;5.70;;;;;;;4.42;89.11;103504.72;5028712;28;20071;-63
2022/01/28 09:35:37;;;;;;;19.47;5.30;;;;;;;4.46;89.52;103498.41;5028381;28;20400;-63
2022/01/28 09:38:04;;;;;;;27.73;6.50;;;;;;;4.53;89.68;103498.97;5028754;28;20021;-63
2022/01/28 09:40:30;;;;;;;28.77;6.13;;;;;;;4.67;89.67;103494.00;5026928;28;20497;-63
2022/01/28 09:42:55;;;;;;;22.67;5.87;;;;;;;4.64;89.64;103494.13;5028304;28;20021;-63
2022/01/28 09:45:24;;;;;;;21.57;5.67;;;;;;;4.75;89.25;103506.81;5028098;28;20385;-63
2022/01/28 09:47:53;;;;;;;20.23;5.60;;;;;;;4.81;89.45;103498.63;5028519;28;20017;-62
2022/01/28 09:50:21;;;;;;;20.13;5.65;;;;;;;4.91;89.65;103510.47;5027086;28;20108;-63
2022/01/28 09:52:47;;;;;;;22.33;5.17;;;;;;;4.95;89.61;103515.56;5028143;28;20491;-63
2022/01/28 09:55:13;;;;;;;28.20;6.23;;;;;;;4.95;89.74;103510.28;5028070;28;20047;-63
2022/01/28 09:57:38;;;;;;;21.03;5.13;;;;;;;4.98;89.62;103515.41;5028877;28;20100;-63
2022/01/28 10:00:06;;;;;;;19.53;5.33;;;;;;;5.06;89.66;103517.69;5027373;28;20064;-63
2022/01/28 10:02:55;;;;;;;17.77;5.80;;;;;;;5.13;90.21;103519.13;5028506;28;20017;-63
2022/01/28 10:05:24;;;;;;;;;;;;;;;5.22;90.17;103509.97;5024159;28;20032;-63
2022/01/28 10:08:10;;;;;;;24.23;6.40;;;;;;;5.25;90.07;103502.78;5027787;28;19917;-63
2022/01/28 10:11:19;;;;;;;22.20;5.87;;;;;;;5.34;89.96;103514.66;5027638;28;20480;-63
2022/01/28 10:13:52;;;;;;;23.88;5.43;;;;;;;5.41;89.93;103516.06;5024528;28;20028;-63
2022/01/28 10:16:22;;;;;;;21.17;5.63;;;;;;;5.45;89.63;103515.00;5028110;28;20092;-63
2022/01/28 10:18:52;;;;;;;18.43;5.50;;;;;;;5.49;89.64;103519.22;5027269;28;20025;-63
2022/01/28 10:21:33;;;;;;;24.67;5.67;;;;;;;5.52;89.63;103516.44;5027972;28;20076;-63
2022/01/28 10:24:25;;;;;;;20.80;5.53;;;;;;;5.61;89.37;103515.16;5027842;28;20033;-63
2022/01/28 10:26:59;;;;;;;21.67;5.83;;;;;;;5.70;89.68;103514.69;5023727;28;20022;-63
2022/01/28 10:29:24;;;;;;;20.63;5.80;;;;;;;5.75;89.66;103519.75;5027033;28;20056;-63
2022/01/28 10:31:51;;;;;;;31.37;6.33;;;;;;;5.83;89.47;103522.91;5027793;28;20064;-63
2022/01/28 10:34:24;;;;;;;26.43;5.80;;;;;;;5.87;89.75;103527.94;5027644;28;20033;-63
2022/01/28 10:36:51;;;;;;;22.97;5.70;;;;;;;5.92;89.15;103537.44;5031863;28;20025;-63
2022/01/28 10:39:22;;;;;;;33.17;6.97;;;;;;;5.96;89.15;103531.09;5030752;28;20603;-63
2022/01/28 10:41:52;;;;;;;18.13;5.27;;;;;;;6.03;89.26;103532.50;5029111;28;20029;-63
2022/01/28 10:44:18;;;;;;;29.00;5.00;;;;;;;6.06;89.11;103527.06;5032040;28;20025;-63
2022/01/28 10:46:51;;;;;;;17.87;5.03;;;;;;;6.13;88.46;103533.78;5031265;28;20032;-63
2022/01/28 10:49:16;;;;;;;17.37;4.50;;;;;;;6.20;88.44;103522.84;5031250;28;20017;-64
2022/01/28 10:51:50;;;;;;;27.43;5.57;;;;;;;6.25;88.43;103522.59;5030283;28;20067;-63
2022/01/28 10:54:18;;;;;;;26.80;4.87;;;;;;;6.29;88.14;103508.31;5026257;28;20029;-63
2022/01/28 10:56:58;;;;;;;23.70;4.60;;;;;;;6.36;87.69;103515.00;5031643;28;20104;-63
2022/01/28 10:59:25;;;;;;;26.83;4.80;;;;;;;6.44;87.22;103502.28;5030248;28;20025;-63
2022/01/28 11:01:52;;;;;;;20.63;4.47;;;;;;;6.46;86.74;103500.41;5026302;28;20026;-64
2022/01/28 11:04:19;;;;;;;18.70;5.03;;;;;;;6.52;86.98;103500.09;5028779;28;20029;-63
2022/01/28 11:06:46;;;;;;;16.73;3.50;;;;;;;6.60;86.36;103506.75;5030556;28;20021;-63
2022/01/28 11:09:13;;;;;;;13.73;3.10;;;;;;;6.66;85.94;103502.03;5023482;28;20404;-64
2022/01/28 11:11:39;;;;;;;17.53;2.80;;;;;;;6.65;85.35;103502.06;5028520;28;20137;-64
2022/01/28 11:14:06;;;;;;;19.20;2.90;;;;;;;6.57;85.03;103486.63;5028783;28;20444;-64
2022/01/28 11:16:31;;;;;;;19.57;2.87;;;;;;;6.50;84.97;103483.47;5029622;28;20044;-63
2022/01/28 11:18:58;;;;;;;15.93;2.70;;;;;;;6.44;84.97;103483.78;5028720;28;20021;-63
2022/01/28 11:21:49;;;;;;;16.20;2.60;;;;;;;6.49;84.71;103487.03;5026591;28;20025;-63
2022/01/28 11:24:55;;;;;;;16.40;3.03;;;;;;;6.63;84.16;103474.91;5022268;28;20021;-63
2022/01/28 11:27:29;;;;;;;18.17;3.03;;;;;;;6.73;83.90;103470.88;5025484;28;20025;-63
2022/01/28 11:30:19;;;;;;;16.10;2.50;;;;;;;6.86;83.44;103465.78;5029453;28;20017;-63
2022/01/28 11:33:15;;;;;;;13.93;2.23;;;;;;;6.97;82.87;103459.00;5029865;28;20025;-64
2022/01/28 11:35:40;;;;;;;13.93;2.13;;;;;;;7.00;82.39;103469.41;5025346;28;20056;-63
2022/01/28 11:38:24;;;;;;;13.53;2.20;;;;;;;7.05;81.78;103461.22;5029530;28;20489;-64
2022/01/28 11:40:55;;;;;;;20.40;2.63;;;;;;;7.06;81.14;103457.63;5026236;28;20029;-63
2022/01/28 11:43:23;;;;;;;17.90;2.57;;;;;;;7.10;81.11;103444.16;5027009;28;20124;-62
2022/01/28 11:46:05;;;;;;;15.07;2.47;;;;;;;7.17;80.67;103449.97;5027681;28;20511;-64
2022/01/28 11:48:56;;;;;;;18.95;2.33;;;;;;;7.28;80.78;103452.03;5027638;28;20029;-63
2022/01/28 11:51:23;;;;;;;13.57;1.73;;;;;;;7.39;80.50;103458.41;5016348;28;20043;-62
2022/01/28 11:53:56;;;;;;;15.13;2.37;;;;;;;7.50;80.07;103459.59;5028165;28;20028;-63
2022/01/28 11:56:22;;;;;;;17.52;2.30;;;;;;;7.52;79.52;103455.97;5029025;28;20112;-63
2022/01/28 11:58:58;;;;;;;13.45;2.00;;;;;;;7.58;79.35;103457.41;5024923;28;20129;-64
2022/01/28 12:01:25;;;;;;;17.80;2.17;;;;;;;7.58;78.79;103449.47;5017501;28;20087;-63
2022/01/28 12:03:50;;;;;;;13.15;2.25;;;;;;;7.61;79.00;103447.50;5029643;28;20180;-64
2022/01/28 12:06:17;;;;;;;17.77;2.30;;;;;;;7.59;78.09;103446.72;5029374;28;20021;-64
2022/01/28 12:08:44;;;;;;;12.32;1.90;;;;;;;7.54;77.94;103447.94;5028658;28;20025;-64
2022/01/28 12:11:12;;;;;;;12.13;2.00;;;;;;;7.51;77.93;103443.66;5029425;28;20032;-63
2022/01/28 12:13:53;;;;;;;11.50;2.45;;;;;;;7.57;77.45;103448.63;5029429;28;20071;-63
2022/01/28 12:16:26;;;;;;;15.30;2.20;;;;;;;7.70;77.78;103439.03;5028861;28;20025;-63
2022/01/28 12:18:56;;;;;;;12.50;1.90;;;;;;;7.70;77.35;103431.09;5029149;28;20033;-64
2022/01/28 12:21:24;;;;;;;11.05;2.00;;;;;;;7.84;77.24;103430.31;5028946;28;20477;-63
2022/01/28 12:23:51;;;;;;;12.63;1.90;;;;;;;7.95;77.47;103422.59;5028102;28;20037;-64
2022/01/28 12:26:19;;;;;;;12.98;2.20;;;;;;;8.11;77.42;103416.41;5030932;28;20052;-63
2022/01/28 12:28:48;;;;;;;17.23;2.33;;;;;;;8.17;77.07;103400.16;5028361;28;20386;-64
2022/01/28 12:31:21;;;;;;;11.90;2.00;;;;;;;8.30;76.73;103407.25;5028782;28;20112;-63
2022/01/28 12:33:52;;;;;;;14.68;2.00;;;;;;;8.45;76.32;103402.84;5029390;28;20037;-63
2022/01/28 12:36:24;;;;;;;12.05;1.92;;;;;;;8.47;75.80;103392.16;5028762;28;20037;-63
2022/01/28 12:38:59;;;;;;;10.32;1.98;;;;;;;8.41;75.15;103390.75;5028384;28;20071;-64
2022/01/28 12:41:25;;;;;;;12.38;2.00;;;;;;;8.49;74.77;103388.47;5021346;28;20105;-63
2022/01/28 12:43:51;;;;;;;12.95;2.33;;;;;;;8.58;74.59;103397.66;5028876;28;20104;-64
2022/01/28 12:46:17;;;;;;;18.10;2.63;;;;;;;8.58;74.37;103397.66;5028934;28;20109;-64
2022/01/28 12:48:52;;;;;;;15.13;2.58;;;;;;;8.45;74.50;103394.06;5026651;28;20108;-63
2022/01/28 12:51:21;;;;;;;16.35;3.22;;;;;;;8.34;74.21;103397.34;5022038;28;20036;-63
2022/01/28 12:53:53;;;;;;;13.07;2.45;;;;;;;8.29;74.14;103394.94;5026759;28;20036;-62
2022/01/28 12:56:29;;;;;;;13.38;2.70;;;;;;;8.22;74.28;103387.47;5027369;28;20057;-66
2022/01/28 12:58:54;;;;;;;13.85;3.03;;;;;;;8.32;74.40;103384.16;5025963;28;20025;-64
2022/01/28 13:01:20;;;;;;;13.73;3.25;;;;;;;8.48;74.42;103381.47;5023208;28;20107;-64